createdAt,value
2023-04-23T00:03:37.456Z,68.75
2023-04-23T00:08:40.949Z,69.03
2023-04-23T00:13:42.629Z,69.18
2023-04-23T00:18:43.952Z,69.88
2023-04-23T00:23:45.313Z,69.99
2023-04-23T00:28:46.697Z,70.19
2023-04-23T00:33:48.251Z,70.33
2023-04-23T00:38:49.622Z,70.31
2023-04-23T00:43:53.096Z,70.32
2023-04-23T00:48:54.891Z,70.16
2023-04-23T00:53:56.312Z,70.71
2023-04-23T00:58:57.732Z,70.71
2023-04-23T01:03:59.855Z,70.90
2023-04-23T01:09:01.539Z,71.28
2023-04-23T01:14:03.263Z,71.39
2023-04-23T01:19:07.664Z,71.58
2023-04-23T01:24:10.089Z,71.77
2023-04-23T01:29:11.888Z,72.26
2023-04-23T01:34:13.882Z,72.85
2023-04-23T01:39:15.675Z,72.91
2023-04-23T01:44:17.059Z,73.53
2023-04-23T01:49:18.534Z,73.55
2023-04-23T01:54:19.934Z,73.82
2023-04-23T01:59:22.745Z,74.13
2023-04-23T02:04:24.420Z,74.63
2023-04-23T02:09:25.962Z,74.85
2023-04-23T02:14:27.939Z,75.33
2023-04-23T02:19:31.641Z,75.20
2023-04-23T02:24:33.887Z,75.42
2023-04-23T02:29:36.731Z,75.19
2023-04-23T02:34:38.340Z,75.39
2023-04-23T02:39:39.902Z,75.52
2023-04-23T02:44:41.531Z,75.74
2023-04-23T02:49:43.078Z,75.65
2023-04-23T02:54:44.409Z,75.79
2023-04-23T02:59:46.240Z,75.78
2023-04-23T03:04:47.598Z,75.64
2023-04-23T03:09:48.978Z,76.01
2023-04-23T03:14:50.349Z,76.18
2023-04-23T03:19:51.943Z,76.34
2023-04-23T03:24:53.279Z,75.89
2023-04-23T03:29:54.637Z,76.23
2023-04-23T03:34:56.004Z,76.03
2023-04-23T03:39:57.339Z,75.72
2023-04-23T03:44:59.272Z,75.82
2023-04-23T03:50:00.593Z,76.09
2023-04-23T03:55:02.733Z,76.03
2023-04-23T04:00:08.096Z,76.13
2023-04-23T04:05:11.349Z,76.02
2023-04-23T04:10:13.087Z,75.91
2023-04-23T04:15:16.848Z,75.95
2023-04-23T04:20:18.295Z,75.93
2023-04-23T04:25:22.132Z,75.88
2023-04-23T04:30:24.555Z,76.04
2023-04-23T04:35:26.256Z,75.76
2023-04-23T04:40:28.556Z,75.54
2023-04-23T04:45:29.887Z,75.35
2023-04-23T04:50:31.358Z,75.24
2023-04-23T04:55:32.687Z,75.43
2023-04-23T05:00:34.356Z,75.59
2023-04-23T05:05:35.754Z,75.92
2023-04-23T05:10:37.552Z,75.50
2023-04-23T05:15:39.074Z,75.60
2023-04-23T05:20:41.068Z,75.24
2023-04-23T05:25:42.446Z,75.45
2023-04-23T05:30:43.867Z,75.43
2023-04-23T05:35:45.240Z,75.29
2023-04-23T05:40:46.806Z,75.36
2023-04-23T05:45:48.172Z,75.06
2023-04-23T05:50:49.532Z,75.01
2023-04-23T05:55:50.903Z,75.13
2023-04-23T06:00:53.248Z,75.18
2023-04-23T06:05:54.692Z,75.09
2023-04-23T06:10:56.228Z,74.91
2023-04-23T06:15:58.443Z,74.83
2023-04-23T06:21:04.157Z,74.68
2023-04-23T06:26:05.680Z,74.59
2023-04-23T06:31:07.917Z,74.39
2023-04-23T06:36:12.045Z,74.30
2023-04-23T06:41:13.672Z,74.03
2023-04-23T06:46:15.537Z,74.08
2023-04-23T06:51:17.224Z,73.56
2023-04-23T06:56:18.617Z,73.35
2023-04-23T07:01:20.220Z,73.40
2023-04-23T07:06:21.774Z,72.94
2023-04-23T07:11:23.823Z,72.60
2023-04-23T07:16:25.805Z,72.26
2023-04-23T07:21:28.548Z,71.86
2023-04-23T07:26:29.940Z,71.12
2023-04-23T07:31:31.569Z,71.17
2023-04-23T07:36:33.479Z,70.33
2023-04-23T07:41:35.637Z,70.12
2023-04-23T07:46:37.186Z,69.41
2023-04-23T07:51:38.714Z,68.77
2023-04-23T07:56:42.047Z,68.28
2023-04-23T08:01:44.795Z,67.50
2023-04-23T08:06:46.299Z,66.95
2023-04-23T08:11:48.233Z,66.27
2023-04-23T08:16:49.720Z,65.91
2023-04-23T08:21:52.388Z,65.03
2023-04-23T08:26:53.751Z,64.45
2023-04-23T08:31:55.185Z,64.37
2023-04-23T08:36:56.613Z,64.02
2023-04-23T08:42:04.750Z,63.70
2023-04-23T08:47:08.135Z,63.69
2023-04-23T08:52:19.725Z,62.58
2023-04-23T08:57:22.074Z,62.03
2023-04-23T09:02:24.284Z,61.48
2023-04-23T09:07:25.864Z,61.19
2023-04-23T09:12:27.897Z,60.75
2023-04-23T09:17:30.644Z,60.13
2023-04-23T09:22:47.377Z,59.60
2023-04-23T09:27:51.892Z,59.55
2023-04-23T09:32:53.851Z,58.88
2023-04-23T09:37:55.409Z,57.80
2023-04-23T09:42:56.776Z,57.16
2023-04-23T09:47:58.853Z,56.80
2023-04-23T09:53:00.742Z,56.51
2023-04-23T09:58:04.459Z,55.98
2023-04-23T10:03:08.688Z,55.13
2023-04-23T10:08:12.123Z,54.71
2023-04-23T10:13:14.473Z,54.82
2023-04-23T10:18:16.326Z,54.63
2023-04-23T10:23:20.997Z,54.25
2023-04-23T10:28:28.979Z,54.58
2023-04-23T10:33:37.665Z,53.51
2023-04-23T10:38:56.863Z,53.21
2023-04-23T10:43:59.506Z,53.32
2023-04-23T10:49:08.639Z,52.72
2023-04-23T10:54:11.163Z,52.32
2023-04-23T10:59:21.958Z,51.71
2023-04-23T11:04:29.183Z,51.93
2023-04-23T11:09:39.489Z,51.68
2023-04-23T11:14:48.430Z,54.73
2023-04-23T11:20:23.686Z,58.09
2023-04-23T11:25:30.381Z,59.18
2023-04-23T11:30:32.075Z,58.75
2023-04-23T11:35:40.440Z,57.96
2023-04-23T11:40:42.783Z,58.00
2023-04-23T11:45:44.464Z,57.41
2023-04-23T11:50:46.584Z,57.14
2023-04-23T11:55:49.230Z,57.23
2023-04-23T12:00:58.129Z,57.34
2023-04-23T12:05:59.778Z,58.81
2023-04-23T12:11:02.580Z,61.51
2023-04-23T12:16:05.182Z,61.76
2023-04-23T12:21:08.260Z,60.46
2023-04-23T12:26:15.104Z,59.07
2023-04-23T12:31:24.492Z,58.48
2023-04-23T12:36:29.471Z,56.90
2023-04-23T12:41:32.318Z,55.67
2023-04-23T12:46:34.916Z,54.91
2023-04-23T12:51:36.361Z,55.22
2023-04-23T12:56:37.730Z,54.20
2023-04-23T13:01:39.284Z,53.00
2023-04-23T13:06:41.527Z,52.21
2023-04-23T13:11:42.901Z,50.68
2023-04-23T13:16:44.543Z,49.12
2023-04-23T13:21:46.020Z,48.12
2023-04-23T13:26:47.388Z,46.49
2023-04-23T13:31:48.768Z,45.80
2023-04-23T13:36:50.183Z,45.16
2023-04-23T13:42:06.219Z,45.20
2023-04-23T13:47:10.777Z,43.93
2023-04-23T13:52:12.134Z,42.32
2023-04-23T13:57:13.573Z,42.38
2023-04-23T14:02:14.983Z,41.77
2023-04-23T14:07:16.377Z,39.83
2023-04-23T14:12:18.599Z,38.33
2023-04-23T14:17:19.946Z,37.13
2023-04-23T14:22:21.328Z,36.00
2023-04-23T14:27:22.792Z,34.32
2023-04-23T14:32:24.150Z,33.39
2023-04-23T14:37:25.543Z,32.89
2023-04-23T14:42:27.350Z,31.90
2023-04-23T14:47:28.752Z,31.86
2023-04-23T14:52:31.462Z,32.59
2023-04-23T14:57:32.763Z,32.67
2023-04-23T15:02:34.932Z,32.29
2023-04-23T15:07:37.344Z,32.29
2023-04-23T15:12:47.979Z,32.09
2023-04-23T15:17:49.657Z,32.48
2023-04-23T15:22:52.103Z,32.87
2023-04-23T15:27:57.721Z,32.76
2023-04-23T15:32:59.199Z,32.83
2023-04-23T15:38:01.009Z,33.61
2023-04-23T15:43:03.390Z,33.43
2023-04-23T15:48:05.153Z,33.90
2023-04-23T15:53:06.781Z,34.06
2023-04-23T15:58:08.307Z,33.92
2023-04-23T16:03:09.798Z,34.63
2023-04-23T16:08:11.828Z,34.59
2023-04-23T16:13:13.284Z,34.66
2023-04-23T16:18:14.715Z,35.32
2023-04-23T16:23:16.266Z,35.84
2023-04-23T16:28:17.704Z,36.09
2023-04-23T16:33:19.026Z,36.24
2023-04-23T16:38:20.353Z,36.04
2023-04-23T16:43:21.749Z,37.39
2023-04-23T16:48:23.101Z,50.99
2023-04-23T16:53:24.540Z,57.85
2023-04-23T16:58:25.983Z,59.68
2023-04-23T17:03:27.515Z,61.00
2023-04-23T17:08:29.036Z,62.75
2023-04-23T17:13:30.501Z,62.99
2023-04-23T17:18:31.852Z,63.27
2023-04-23T17:23:33.433Z,63.90
2023-04-23T17:28:34.816Z,64.46
2023-04-23T17:33:36.281Z,64.57
2023-04-23T17:38:38.159Z,64.90
2023-04-23T17:43:39.533Z,66.36
2023-04-23T17:48:41.109Z,66.44
2023-04-23T17:53:42.608Z,66.50
2023-04-23T17:58:44.223Z,66.78
2023-04-23T18:03:45.700Z,66.87
2023-04-23T18:08:47.165Z,67.75
2023-04-23T18:13:53.401Z,67.93
2023-04-23T18:18:54.732Z,68.63
2023-04-23T18:23:56.167Z,69.07
2023-04-23T18:28:57.508Z,69.29
2023-04-23T18:34:02.150Z,69.77
2023-04-23T18:39:04.019Z,69.99
2023-04-23T18:44:05.552Z,70.58
2023-04-23T18:49:29.834Z,70.70
2023-04-23T18:54:31.406Z,70.49
2023-04-23T18:59:35.756Z,70.45
2023-04-23T19:04:37.837Z,70.82
2023-04-23T19:09:39.695Z,70.53
2023-04-23T19:14:41.300Z,70.83
2023-04-23T19:19:42.893Z,70.89
2023-04-23T19:24:44.362Z,70.75
2023-04-23T19:29:46.412Z,70.25
2023-04-23T19:34:48.062Z,70.30
2023-04-23T19:39:50.047Z,70.10
2023-04-23T19:44:51.362Z,69.80
2023-04-23T19:49:52.814Z,69.81
2023-04-23T19:54:54.191Z,69.63
2023-04-23T19:59:55.626Z,69.79
2023-04-23T20:04:56.948Z,69.56
2023-04-23T20:09:58.252Z,69.52
2023-04-23T20:14:59.579Z,69.66
2023-04-23T20:20:02.668Z,69.94
2023-04-23T20:25:05.211Z,69.93
2023-04-23T20:30:10.390Z,70.04
2023-04-23T20:35:11.729Z,70.03
2023-04-23T20:40:14.584Z,69.74
2023-04-23T20:45:16.391Z,70.22
2023-04-23T20:50:17.738Z,69.90
2023-04-23T20:55:19.246Z,69.76
2023-04-23T21:00:22.262Z,70.06
2023-04-23T21:05:23.635Z,69.96
2023-04-23T21:10:25.011Z,70.26
2023-04-23T21:15:27.087Z,70.27
2023-04-23T21:20:28.686Z,70.23
2023-04-23T21:25:33.448Z,70.22
2023-04-23T21:30:55.128Z,70.56
2023-04-23T21:35:56.559Z,70.14
2023-04-23T21:40:57.911Z,70.07
2023-04-23T21:45:59.537Z,70.11
2023-04-23T21:51:00.852Z,70.13
2023-04-23T21:56:02.221Z,69.87
2023-04-23T22:01:03.950Z,69.57
2023-04-23T22:06:06.486Z,69.77
2023-04-23T22:11:08.286Z,69.82
2023-04-23T22:16:24.586Z,69.41
2023-04-23T22:21:29.326Z,69.24
2023-04-23T22:26:30.745Z,69.02
2023-04-23T22:31:32.097Z,68.57
2023-04-23T22:36:34.461Z,68.50
2023-04-23T22:41:38.652Z,68.21
2023-04-23T22:46:40.402Z,68.06
2023-04-23T22:51:41.862Z,67.99
2023-04-23T22:56:43.535Z,67.87
2023-04-23T23:01:44.962Z,68.09
2023-04-23T23:06:46.441Z,68.16
2023-04-23T23:11:47.789Z,68.01
2023-04-23T23:16:49.138Z,67.79
2023-04-23T23:21:50.580Z,67.51
2023-04-23T23:26:51.894Z,67.42
2023-04-23T23:31:53.256Z,67.13
2023-04-23T23:36:54.694Z,67.36
2023-04-23T23:41:57.738Z,67.32
2023-04-23T23:47:01.370Z,67.23
2023-04-23T23:52:03.755Z,67.05
2023-04-23T23:57:05.151Z,67.08
